Aeroporto :
LOGIN :

Iscrizione | Disclaimer

   EN    FR    IT 

 










Sommario :    VFR   VFR Marginale   IFR   IFR Intensivo   IFR Molto Intensivo
Visibilità : 
Base nubi : 
>= 8 km
>= 3000ft
5 / 8 km
1000 / 3000 ft
1500m / 5 km
500 / 1000 ft
800 / 1500m
200 / 500 ft
< 800m
< 200 ft
Simboli :   Temporali  Nebbia  Neve Forte  Precipitazioni Forti  Vento > 20 kt
SIGMETs :   Varie  Temporali  Ghiacco  Turbolenza  Onda orograficha  Ceneri Vulcaniche






- Altitudine del aeroporto : 1470 ft
- Codice IATA : KLU


LOWK - Klagenfurt

ULTIMO METAR :
  • 200520Z 32002KT CAVOK M05/M08 Q1041 R10L/19//95 NOSIG

METARs OBSOLETI :
  • 200450Z 31004KT CAVOK M05/M08 Q1040 R10L/19//95 NOSIG
  • 200420Z AUTO 31003KT 9999 BKN160 M05/M08 Q1040
  • 200350Z AUTO 31004KT 9999 FEW170 BKN180 M05/M08 Q1040
  • 200320Z AUTO 30003KT 9999 FEW180 SCT190 M05/M08 Q1039
  • 200250Z AUTO 34003KT 9999 FEW150 M05/M07 Q1039
  • 200220Z AUTO VRB02KT 9999 NSC M05/M07 Q1039

TAF TAF LOWK
Valido dal 20 a 00 ore il 21 a 00 ore UTC


192315Z 2000/2024 33004KT 9999 FEW120 TX03/2014Z TNM04/2005Z
TEMPO 2012/2018 09007KT 9999 FEW060 SCT070



MetMap, La meteo Aeronautica in un colpo d'occhio ! - Copyright ORBIFLY Dicembre 2007 - Disclaimer

ORBIFLY MET'MAP TEAM :

Programmazione e sviluppo : Alexandra Zaïnal
Concezione : Baudouin d'Aumeries
Aiuto per la programmazione : Marc-Olivier Méhu
Supporto tecnico e logistico : Manuel Goepfert
Aiuto per la traduzione : Arnaldo La Scala

Contatto : metmap@orbifly.com




FONTI E CREDITI :

   NOAA